sensor_id;sensor_type;location;lat;lon;timestamp;pressure;altitude;pressure_sealevel;temperature;humidity
60832;BME280;46665;51.558;-0.448;2023-04-29T00:00:02;101276.31;;;7.48;100.00
60832;BME280;46665;51.558;-0.448;2023-04-29T00:02:29;101274.84;;;7.41;100.00
60832;BME280;46665;51.558;-0.448;2023-04-29T00:04:55;101281.81;;;7.36;100.00
60832;BME280;46665;51.558;-0.448;2023-04-29T00:07:20;101280.50;;;7.39;100.00
60832;BME280;46665;51.558;-0.448;2023-04-29T00:09:46;101275.91;;;7.40;100.00
60832;BME280;46665;51.558;-0.448;2023-04-29T00:12:11;101288.38;;;7.41;100.00
60832;BME280;46665;51.558;-0.448;2023-04-29T00:14:37;101282.97;;;7.41;100.00
60832;BME280;46665;51.558;-0.448;2023-04-29T00:17:02;101261.00;;;7.37;100.00
60832;BME280;46665;51.558;-0.448;2023-04-29T00:19:28;101278.38;;;7.41;100.00
60832;BME280;46665;51.558;-0.448;2023-04-29T00:21:53;101277.22;;;7.37;100.00
60832;BME280;46665;51.558;-0.448;2023-04-29T00:24:19;101279.94;;;7.37;100.00
60832;BME280;46665;51.558;-0.448;2023-04-29T00:26:44;101292.63;;;7.36;100.00
60832;BME280;46665;51.558;-0.448;2023-04-29T00:29:10;101287.97;;;7.32;100.00
60832;BME280;46665;51.558;-0.448;2023-04-29T00:31:36;101289.28;;;7.29;100.00
60832;BME280;46665;51.558;-0.448;2023-04-29T00:34:02;101288.94;;;7.26;100.00
60832;BME280;46665;51.558;-0.448;2023-04-29T00:36:27;101286.63;;;7.18;100.00
60832;BME280;46665;51.558;-0.448;2023-04-29T00:38:53;101278.63;;;7.11;100.00
60832;BME280;46665;51.558;-0.448;2023-04-29T00:41:19;101285.25;;;7.03;100.00
60832;BME280;46665;51.558;-0.448;2023-04-29T00:43:45;101283.84;;;7.01;100.00
60832;BME280;46665;51.558;-0.448;2023-04-29T00:46:10;101286.91;;;7.04;100.00
60832;BME280;46665;51.558;-0.448;2023-04-29T00:48:36;101290.19;;;7.06;100.00
60832;BME280;46665;51.558;-0.448;2023-04-29T00:51:02;101295.25;;;7.03;100.00
60832;BME280;46665;51.558;-0.448;2023-04-29T00:53:29;101290.09;;;7.01;100.00
60832;BME280;46665;51.558;-0.448;2023-04-29T00:55:55;101289.53;;;6.99;100.00
60832;BME280;46665;51.558;-0.448;2023-04-29T00:58:21;101291.38;;;6.99;100.00
60832;BME280;46665;51.558;-0.448;2023-04-29T01:00:48;101292.78;;;7.01;100.00
60832;BME280;46665;51.558;-0.448;2023-04-29T01:03:14;101294.69;;;7.01;100.00
60832;BME280;46665;51.558;-0.448;2023-04-29T01:05:40;101294.34;;;6.97;100.00
60832;BME280;46665;51.558;-0.448;2023-04-29T01:08:25;101295.56;;;6.89;100.00
60832;BME280;46665;51.558;-0.448;2023-04-29T01:13:42;101301.25;;;6.76;100.00
60832;BME280;46665;51.558;-0.448;2023-04-29T01:16:15;101295.88;;;6.64;100.00
60832;BME280;46665;51.558;-0.448;2023-04-29T01:19:14;101302.09;;;6.53;100.00
60832;BME280;46665;51.558;-0.448;2023-04-29T01:21:44;101298.38;;;6.42;100.00
60832;BME280;46665;51.558;-0.448;2023-04-29T01:24:10;101292.03;;;6.37;100.00
60832;BME280;46665;51.558;-0.448;2023-04-29T01:26:35;101300.13;;;6.37;100.00
60832;BME280;46665;51.558;-0.448;2023-04-29T01:29:22;101302.13;;;6.41;100.00
60832;BME280;46665;51.558;-0.448;2023-04-29T01:32:00;101307.28;;;6.43;100.00
60832;BME280;46665;51.558;-0.448;2023-04-29T01:35:10;101298.47;;;6.47;100.00
60832;BME280;46665;51.558;-0.448;2023-04-29T01:40:49;101303.41;;;6.50;100.00
60832;BME280;46665;51.558;-0.448;2023-04-29T01:43:22;101312.09;;;6.53;100.00
60832;BME280;46665;51.558;-0.448;2023-04-29T01:45:49;101300.94;;;6.49;100.00
60832;BME280;46665;51.558;-0.448;2023-04-29T01:48:18;101302.38;;;6.40;100.00
60832;BME280;46665;51.558;-0.448;2023-04-29T01:50:44;101314.34;;;6.32;100.00
60832;BME280;46665;51.558;-0.448;2023-04-29T01:53:10;101314.50;;;6.25;100.00
60832;BME280;46665;51.558;-0.448;2023-04-29T01:55:35;101314.13;;;6.22;100.00
60832;BME280;46665;51.558;-0.448;2023-04-29T01:58:01;101318.13;;;6.19;100.00
60832;BME280;46665;51.558;-0.448;2023-04-29T02:00:26;101316.13;;;6.15;100.00
60832;BME280;46665;51.558;-0.448;2023-04-29T02:02:52;101305.78;;;6.12;100.00
60832;BME280;46665;51.558;-0.448;2023-04-29T02:05:18;101310.59;;;6.10;100.00
60832;BME280;46665;51.558;-0.448;2023-04-29T02:07:44;101318.00;;;6.14;100.00
60832;BME280;46665;51.558;-0.448;2023-04-29T02:10:09;101312.81;;;6.13;100.00
60832;BME280;46665;51.558;-0.448;2023-04-29T02:12:36;101324.38;;;6.08;100.00
60832;BME280;46665;51.558;-0.448;2023-04-29T02:15:01;101326.94;;;6.03;100.00
60832;BME280;46665;51.558;-0.448;2023-04-29T02:17:27;101321.44;;;5.98;100.00
60832;BME280;46665;51.558;-0.448;2023-04-29T02:19:52;101318.00;;;6.02;100.00
60832;BME280;46665;51.558;-0.448;2023-04-29T02:22:19;101323.78;;;6.06;100.00
60832;BME280;46665;51.558;-0.448;2023-04-29T02:24:45;101323.41;;;6.02;100.00
60832;BME280;46665;51.558;-0.448;2023-04-29T02:27:10;101322.59;;;6.02;100.00
60832;BME280;46665;51.558;-0.448;2023-04-29T02:29:36;101326.44;;;5.94;100.00
60832;BME280;46665;51.558;-0.448;2023-04-29T02:32:01;101324.19;;;5.91;100.00
60832;BME280;46665;51.558;-0.448;2023-04-29T02:34:27;101328.78;;;5.91;100.00
60832;BME280;46665;51.558;-0.448;2023-04-29T02:36:52;101327.97;;;5.90;100.00
60832;BME280;46665;51.558;-0.448;2023-04-29T02:39:18;101329.81;;;5.90;100.00
60832;BME280;46665;51.558;-0.448;2023-04-29T02:41:44;101336.28;;;5.89;100.00
60832;BME280;46665;51.558;-0.448;2023-04-29T02:44:10;101333.59;;;5.89;100.00
60832;BME280;46665;51.558;-0.448;2023-04-29T02:46:35;101334.19;;;5.91;100.00
60832;BME280;46665;51.558;-0.448;2023-04-29T02:49:01;101333.28;;;5.97;100.00
60832;BME280;46665;51.558;-0.448;2023-04-29T02:51:28;101330.22;;;6.05;100.00
60832;BME280;46665;51.558;-0.448;2023-04-29T02:53:53;101332.69;;;6.06;100.00
60832;BME280;46665;51.558;-0.448;2023-04-29T02:56:19;101327.06;;;6.08;100.00
60832;BME280;46665;51.558;-0.448;2023-04-29T02:58:45;101340.91;;;6.12;100.00
60832;BME280;46665;51.558;-0.448;2023-04-29T03:01:11;101342.44;;;6.07;100.00
60832;BME280;46665;51.558;-0.448;2023-04-29T03:03:36;101346.44;;;6.05;100.00
60832;BME280;46665;51.558;-0.448;2023-04-29T03:06:02;101342.44;;;5.96;100.00
60832;BME280;46665;51.558;-0.448;2023-04-29T03:08:28;101346.88;;;5.90;100.00
60832;BME280;46665;51.558;-0.448;2023-04-29T03:10:53;101341.56;;;5.83;100.00
60832;BME280;46665;51.558;-0.448;2023-04-29T03:13:18;101343.19;;;5.84;100.00
60832;BME280;46665;51.558;-0.448;2023-04-29T03:15:45;101336.03;;;5.78;100.00
60832;BME280;46665;51.558;-0.448;2023-04-29T03:18:10;101344.97;;;5.79;100.00
60832;BME280;46665;51.558;-0.448;2023-04-29T03:20:36;101340.72;;;5.71;100.00
60832;BME280;46665;51.558;-0.448;2023-04-29T03:23:01;101348.13;;;5.76;100.00
60832;BME280;46665;51.558;-0.448;2023-04-29T03:25:26;101338.63;;;5.73;100.00
60832;BME280;46665;51.558;-0.448;2023-04-29T03:27:52;101338.34;;;5.63;100.00
60832;BME280;46665;51.558;-0.448;2023-04-29T03:30:18;101341.75;;;5.58;100.00
60832;BME280;46665;51.558;-0.448;2023-04-29T03:32:43;101345.72;;;5.56;100.00
60832;BME280;46665;51.558;-0.448;2023-04-29T03:35:10;101341.94;;;5.45;100.00
60832;BME280;46665;51.558;-0.448;2023-04-29T03:37:36;101350.59;;;5.35;100.00
60832;BME280;46665;51.558;-0.448;2023-04-29T03:40:02;101357.06;;;5.34;100.00
60832;BME280;46665;51.558;-0.448;2023-04-29T03:42:28;101346.47;;;5.33;100.00
60832;BME280;46665;51.558;-0.448;2023-04-29T03:44:53;101350.38;;;5.37;100.00
60832;BME280;46665;51.558;-0.448;2023-04-29T03:47:19;101351.78;;;5.39;100.00
60832;BME280;46665;51.558;-0.448;2023-04-29T03:49:44;101356.72;;;5.42;100.00
60832;BME280;46665;51.558;-0.448;2023-04-29T03:52:10;101349.91;;;5.40;100.00
60832;BME280;46665;51.558;-0.448;2023-04-29T03:54:36;101355.06;;;5.41;100.00
60832;BME280;46665;51.558;-0.448;2023-04-29T03:57:02;101345.47;;;5.46;100.00
60832;BME280;46665;51.558;-0.448;2023-04-29T03:59:28;101348.91;;;5.53;100.00
60832;BME280;46665;51.558;-0.448;2023-04-29T04:01:54;101346.78;;;5.55;100.00
60832;BME280;46665;51.558;-0.448;2023-04-29T04:04:19;101348.22;;;5.57;100.00
60832;BME280;46665;51.558;-0.448;2023-04-29T04:06:45;101337.75;;;5.61;100.00
60832;BME280;46665;51.558;-0.448;2023-04-29T04:09:19;101338.34;;;5.63;100.00
60832;BME280;46665;51.558;-0.448;2023-04-29T04:11:45;101348.78;;;5.59;100.00
60832;BME280;46665;51.558;-0.448;2023-04-29T04:14:10;101359.44;;;5.54;100.00
60832;BME280;46665;51.558;-0.448;2023-04-29T04:16:36;101356.84;;;5.48;100.00
60832;BME280;46665;51.558;-0.448;2023-04-29T04:19:01;101360.84;;;5.45;100.00
60832;BME280;46665;51.558;-0.448;2023-04-29T04:21:27;101359.19;;;5.44;100.00
60832;BME280;46665;51.558;-0.448;2023-04-29T04:23:52;101363.28;;;5.47;100.00
60832;BME280;46665;51.558;-0.448;2023-04-29T04:26:18;101360.38;;;5.48;100.00
60832;BME280;46665;51.558;-0.448;2023-04-29T04:28:45;101364.34;;;5.46;100.00
60832;BME280;46665;51.558;-0.448;2023-04-29T04:31:10;101372.13;;;5.54;100.00
60832;BME280;46665;51.558;-0.448;2023-04-29T04:33:36;101369.66;;;5.52;100.00
60832;BME280;46665;51.558;-0.448;2023-04-29T04:36:02;101375.34;;;5.62;100.00
60832;BME280;46665;51.558;-0.448;2023-04-29T04:38:27;101385.22;;;5.69;100.00
60832;BME280;46665;51.558;-0.448;2023-04-29T04:40:52;101379.22;;;5.67;100.00
60832;BME280;46665;51.558;-0.448;2023-04-29T04:43:18;101379.47;;;5.77;100.00
60832;BME280;46665;51.558;-0.448;2023-04-29T04:45:43;101383.50;;;5.86;100.00
60832;BME280;46665;51.558;-0.448;2023-04-29T04:48:09;101383.84;;;5.90;100.00
60832;BME280;46665;51.558;-0.448;2023-04-29T04:50:34;101401.47;;;5.92;100.00
60832;BME280;46665;51.558;-0.448;2023-04-29T04:53:00;101403.13;;;5.93;100.00
60832;BME280;46665;51.558;-0.448;2023-04-29T04:55:25;101414.56;;;5.95;100.00
60832;BME280;46665;51.558;-0.448;2023-04-29T04:57:51;101411.53;;;6.03;100.00
60832;BME280;46665;51.558;-0.448;2023-04-29T05:00:16;101414.69;;;6.00;100.00
60832;BME280;46665;51.558;-0.448;2023-04-29T05:02:42;101427.25;;;6.06;100.00
60832;BME280;46665;51.558;-0.448;2023-04-29T05:05:07;101428.53;;;6.04;100.00
60832;BME280;46665;51.558;-0.448;2023-04-29T05:07:33;101428.09;;;6.07;100.00
60832;BME280;46665;51.558;-0.448;2023-04-29T05:10:01;101428.22;;;6.12;100.00
60832;BME280;46665;51.558;-0.448;2023-04-29T05:12:28;101433.53;;;6.19;100.00
60832;BME280;46665;51.558;-0.448;2023-04-29T05:14:55;101431.41;;;6.21;100.00
60832;BME280;46665;51.558;-0.448;2023-04-29T05:17:21;101431.19;;;6.34;100.00
60832;BME280;46665;51.558;-0.448;2023-04-29T05:19:48;101424.59;;;6.42;100.00
60832;BME280;46665;51.558;-0.448;2023-04-29T05:22:13;101421.06;;;6.53;100.00
60832;BME280;46665;51.558;-0.448;2023-04-29T05:24:38;101432.38;;;6.62;100.00
60832;BME280;46665;51.558;-0.448;2023-04-29T05:27:04;101441.44;;;6.67;100.00
60832;BME280;46665;51.558;-0.448;2023-04-29T05:29:30;101439.91;;;6.71;100.00
60832;BME280;46665;51.558;-0.448;2023-04-29T05:31:55;101448.72;;;6.79;100.00
60832;BME280;46665;51.558;-0.448;2023-04-29T05:34:20;101448.03;;;6.71;100.00
60832;BME280;46665;51.558;-0.448;2023-04-29T05:36:46;101451.53;;;6.72;100.00
60832;BME280;46665;51.558;-0.448;2023-04-29T05:39:11;101446.59;;;6.81;100.00
60832;BME280;46665;51.558;-0.448;2023-04-29T05:41:37;101455.88;;;6.85;100.00
60832;BME280;46665;51.558;-0.448;2023-04-29T05:44:02;101450.81;;;6.88;100.00
60832;BME280;46665;51.558;-0.448;2023-04-29T05:46:27;101445.78;;;6.92;100.00
60832;BME280;46665;51.558;-0.448;2023-04-29T05:48:53;101445.41;;;7.00;100.00
60832;BME280;46665;51.558;-0.448;2023-04-29T05:51:18;101452.81;;;7.05;100.00
60832;BME280;46665;51.558;-0.448;2023-04-29T05:53:44;101449.41;;;7.09;100.00
60832;BME280;46665;51.558;-0.448;2023-04-29T05:56:09;101449.03;;;7.18;100.00
60832;BME280;46665;51.558;-0.448;2023-04-29T05:58:35;101451.84;;;7.23;100.00
60832;BME280;46665;51.558;-0.448;2023-04-29T06:01:00;101451.13;;;7.27;100.00
60832;BME280;46665;51.558;-0.448;2023-04-29T06:03:26;101461.56;;;7.35;100.00
60832;BME280;46665;51.558;-0.448;2023-04-29T06:05:52;101454.38;;;7.41;100.00
60832;BME280;46665;51.558;-0.448;2023-04-29T06:08:19;101452.69;;;7.52;100.00
60832;BME280;46665;51.558;-0.448;2023-04-29T06:10:45;101456.06;;;7.59;100.00
60832;BME280;46665;51.558;-0.448;2023-04-29T06:13:10;101456.16;;;7.64;100.00
60832;BME280;46665;51.558;-0.448;2023-04-29T06:15:36;101457.56;;;7.67;100.00
60832;BME280;46665;51.558;-0.448;2023-04-29T06:18:01;101462.03;;;7.73;100.00
60832;BME280;46665;51.558;-0.448;2023-04-29T06:20:27;101474.50;;;7.74;100.00
60832;BME280;46665;51.558;-0.448;2023-04-29T06:22:53;101468.59;;;7.77;100.00
60832;BME280;46665;51.558;-0.448;2023-04-29T06:25:18;101469.28;;;7.84;100.00
60832;BME280;46665;51.558;-0.448;2023-04-29T06:27:43;101467.84;;;7.93;100.00
60832;BME280;46665;51.558;-0.448;2023-04-29T06:30:09;101462.84;;;8.02;100.00
60832;BME280;46665;51.558;-0.448;2023-04-29T06:32:36;101471.41;;;8.11;100.00
60832;BME280;46665;51.558;-0.448;2023-04-29T06:35:01;101480.84;;;8.25;100.00
60832;BME280;46665;51.558;-0.448;2023-04-29T06:37:27;101479.41;;;8.34;100.00
60832;BME280;46665;51.558;-0.448;2023-04-29T06:39:52;101471.38;;;8.39;100.00
60832;BME280;46665;51.558;-0.448;2023-04-29T06:42:18;101487.22;;;8.48;100.00
60832;BME280;46665;51.558;-0.448;2023-04-29T06:44:43;101485.19;;;8.55;100.00
60832;BME280;46665;51.558;-0.448;2023-04-29T06:47:09;101492.59;;;8.59;100.00
60832;BME280;46665;51.558;-0.448;2023-04-29T06:49:34;101491.50;;;8.60;100.00
60832;BME280;46665;51.558;-0.448;2023-04-29T06:52:00;101501.03;;;8.63;100.00
60832;BME280;46665;51.558;-0.448;2023-04-29T06:54:26;101494.56;;;8.64;100.00
60832;BME280;46665;51.558;-0.448;2023-04-29T06:56:52;101495.97;;;8.66;100.00
60832;BME280;46665;51.558;-0.448;2023-04-29T06:59:18;101491.94;;;8.69;100.00
60832;BME280;46665;51.558;-0.448;2023-04-29T07:01:43;101498.75;;;8.72;100.00
60832;BME280;46665;51.558;-0.448;2023-04-29T07:04:09;101500.97;;;8.75;100.00
60832;BME280;46665;51.558;-0.448;2023-04-29T07:06:34;101507.03;;;8.82;100.00
60832;BME280;46665;51.558;-0.448;2023-04-29T07:08:59;101516.59;;;8.84;100.00
60832;BME280;46665;51.558;-0.448;2023-04-29T07:11:26;101519.81;;;8.81;100.00
60832;BME280;46665;51.558;-0.448;2023-04-29T07:13:51;101526.19;;;8.92;100.00
60832;BME280;46665;51.558;-0.448;2023-04-29T07:16:17;101532.53;;;8.98;100.00
60832;BME280;46665;51.558;-0.448;2023-04-29T07:18:45;101530.38;;;9.00;100.00
60832;BME280;46665;51.558;-0.448;2023-04-29T07:21:10;101528.06;;;9.08;100.00
60832;BME280;46665;51.558;-0.448;2023-04-29T07:23:35;101535.78;;;9.17;100.00
60832;BME280;46665;51.558;-0.448;2023-04-29T07:26:14;101543.44;;;9.20;100.00
60832;BME280;46665;51.558;-0.448;2023-04-29T07:28:40;101540.28;;;9.28;100.00
60832;BME280;46665;51.558;-0.448;2023-04-29T07:31:07;101547.41;;;9.34;100.00
60832;BME280;46665;51.558;-0.448;2023-04-29T07:33:34;101550.22;;;9.39;100.00
60832;BME280;46665;51.558;-0.448;2023-04-29T07:36:00;101540.25;;;9.45;100.00
60832;BME280;46665;51.558;-0.448;2023-04-29T07:38:25;101545.25;;;9.53;100.00
60832;BME280;46665;51.558;-0.448;2023-04-29T07:40:51;101548.84;;;9.59;100.00
60832;BME280;46665;51.558;-0.448;2023-04-29T07:43:16;101551.09;;;9.67;100.00
60832;BME280;46665;51.558;-0.448;2023-04-29T07:45:41;101543.59;;;9.74;100.00
60832;BME280;46665;51.558;-0.448;2023-04-29T07:48:07;101541.50;;;9.81;100.00
60832;BME280;46665;51.558;-0.448;2023-04-29T07:50:35;101551.69;;;9.91;100.00
60832;BME280;46665;51.558;-0.448;2023-04-29T07:53:04;101559.13;;;10.01;100.00
60832;BME280;46665;51.558;-0.448;2023-04-29T07:55:30;101560.59;;;10.08;100.00
60832;BME280;46665;51.558;-0.448;2023-04-29T07:57:56;101554.38;;;10.13;100.00
60832;BME280;46665;51.558;-0.448;2023-04-29T08:00:22;101551.97;;;10.16;100.00
60832;BME280;46665;51.558;-0.448;2023-04-29T08:02:51;101559.09;;;10.23;100.00
60832;BME280;46665;51.558;-0.448;2023-04-29T08:05:17;101556.94;;;10.25;100.00
60832;BME280;46665;51.558;-0.448;2023-04-29T08:07:44;101555.13;;;10.30;100.00
60832;BME280;46665;51.558;-0.448;2023-04-29T08:10:10;101555.69;;;10.32;100.00
60832;BME280;46665;51.558;-0.448;2023-04-29T08:12:35;101554.41;;;10.40;100.00
60832;BME280;46665;51.558;-0.448;2023-04-29T08:15:01;101557.97;;;10.46;100.00
60832;BME280;46665;51.558;-0.448;2023-04-29T08:17:26;101559.44;;;10.53;100.00
60832;BME280;46665;51.558;-0.448;2023-04-29T08:19:52;101558.34;;;10.54;100.00
60832;BME280;46665;51.558;-0.448;2023-04-29T08:22:17;101559.78;;;10.62;100.00
60832;BME280;46665;51.558;-0.448;2023-04-29T08:24:42;101554.38;;;10.67;100.00
60832;BME280;46665;51.558;-0.448;2023-04-29T08:27:09;101552.50;;;10.73;100.00
60832;BME280;46665;51.558;-0.448;2023-04-29T08:29:34;101553.88;;;10.75;100.00
60832;BME280;46665;51.558;-0.448;2023-04-29T08:32:00;101551.44;;;10.74;100.00
60832;BME280;46665;51.558;-0.448;2023-04-29T08:34:25;101553.69;;;10.82;100.00
60832;BME280;46665;51.558;-0.448;2023-04-29T08:36:51;101557.25;;;10.88;100.00
60832;BME280;46665;51.558;-0.448;2023-04-29T08:39:17;101559.50;;;10.96;100.00
60832;BME280;46665;51.558;-0.448;2023-04-29T08:41:42;101553.59;;;11.04;100.00
60832;BME280;46665;51.558;-0.448;2023-04-29T08:44:15;101558.25;;;11.14;100.00
60832;BME280;46665;51.558;-0.448;2023-04-29T08:46:43;101564.28;;;11.21;100.00
60832;BME280;46665;51.558;-0.448;2023-04-29T08:49:10;101563.47;;;11.20;100.00
60832;BME280;46665;51.558;-0.448;2023-04-29T08:51:35;101572.47;;;11.21;100.00
60832;BME280;46665;51.558;-0.448;2023-04-29T08:54:01;101576.59;;;11.28;100.00
60832;BME280;46665;51.558;-0.448;2023-04-29T08:56:27;101575.25;;;11.31;100.00
60832;BME280;46665;51.558;-0.448;2023-04-29T08:58:55;101575.25;;;11.31;100.00
60832;BME280;46665;51.558;-0.448;2023-04-29T09:01:23;101579.63;;;11.32;100.00
60832;BME280;46665;51.558;-0.448;2023-04-29T09:06:35;101588.09;;;11.36;100.00
60832;BME280;46665;51.558;-0.448;2023-04-29T09:09:01;101589.50;;;11.43;100.00
60832;BME280;46665;51.558;-0.448;2023-04-29T09:11:28;101589.25;;;11.45;100.00
60832;BME280;46665;51.558;-0.448;2023-04-29T09:13:58;101587.13;;;11.52;100.00
60832;BME280;46665;51.558;-0.448;2023-04-29T09:16:25;101586.03;;;11.58;100.00
60832;BME280;46665;51.558;-0.448;2023-04-29T09:18:51;101592.34;;;11.64;100.00
60832;BME280;46665;51.558;-0.448;2023-04-29T09:21:21;101595.66;;;11.76;100.00
60832;BME280;46665;51.558;-0.448;2023-04-29T09:23:58;101599.53;;;11.85;100.00
60832;BME280;46665;51.558;-0.448;2023-04-29T09:26:24;101597.41;;;11.92;100.00
60832;BME280;46665;51.558;-0.448;2023-04-29T09:29:09;101600.16;;;11.98;100.00
60832;BME280;46665;51.558;-0.448;2023-04-29T09:31:38;101596.91;;;12.06;97.28
60832;BME280;46665;51.558;-0.448;2023-04-29T09:34:03;101601.28;;;12.12;98.94
60832;BME280;46665;51.558;-0.448;2023-04-29T09:36:49;101609.78;;;12.16;93.76
60832;BME280;46665;51.558;-0.448;2023-04-29T09:39:22;101609.47;;;12.07;91.39
60832;BME280;46665;51.558;-0.448;2023-04-29T09:44:16;101607.06;;;12.16;92.46
60832;BME280;46665;51.558;-0.448;2023-04-29T09:46:43;101609.50;;;12.22;91.77
60832;BME280;46665;51.558;-0.448;2023-04-29T09:49:26;101600.28;;;12.33;92.96
60832;BME280;46665;51.558;-0.448;2023-04-29T09:52:14;101605.75;;;12.44;91.89
60832;BME280;46665;51.558;-0.448;2023-04-29T09:54:39;101606.56;;;12.44;87.15
60832;BME280;46665;51.558;-0.448;2023-04-29T09:57:08;101613.16;;;12.53;89.97
60832;BME280;46665;51.558;-0.448;2023-04-29T09:59:35;101598.66;;;12.53;83.49
60832;BME280;46665;51.558;-0.448;2023-04-29T10:02:14;101596.47;;;12.50;85.89
60832;BME280;46665;51.558;-0.448;2023-04-29T10:04:40;101599.22;;;12.60;85.33
60832;BME280;46665;51.558;-0.448;2023-04-29T10:07:13;101598.16;;;12.76;87.52
60832;BME280;46665;51.558;-0.448;2023-04-29T10:09:41;101595.94;;;12.84;86.21
60832;BME280;46665;51.558;-0.448;2023-04-29T10:12:06;101598.16;;;12.92;86.65
60832;BME280;46665;51.558;-0.448;2023-04-29T10:14:38;101605.25;;;12.93;84.36
60832;BME280;46665;51.558;-0.448;2023-04-29T10:17:14;101600.59;;;12.98;84.83
60832;BME280;46665;51.558;-0.448;2023-04-29T10:22:21;101605.22;;;13.18;84.01
60832;BME280;46665;51.558;-0.448;2023-04-29T10:24:52;101606.03;;;13.14;79.64
60832;BME280;46665;51.558;-0.448;2023-04-29T10:27:20;101609.31;;;13.21;82.63
60832;BME280;46665;51.558;-0.448;2023-04-29T10:29:47;101606.03;;;13.24;80.61
60832;BME280;46665;51.558;-0.448;2023-04-29T10:32:15;101600.06;;;13.27;81.36
60832;BME280;46665;51.558;-0.448;2023-04-29T10:34:42;101608.25;;;13.37;82.51
60832;BME280;46665;51.558;-0.448;2023-04-29T10:37:11;101604.38;;;13.49;80.67
60832;BME280;46665;51.558;-0.448;2023-04-29T10:39:57;101603.50;;;13.74;80.88
60832;BME280;46665;51.558;-0.448;2023-04-29T10:42:36;101611.13;;;13.77;80.68
60832;BME280;46665;51.558;-0.448;2023-04-29T10:50:40;101617.38;;;13.93;76.78
60832;BME280;46665;51.558;-0.448;2023-04-29T10:53:23;101607.75;;;14.05;80.11
60832;BME280;46665;51.558;-0.448;2023-04-29T10:55:57;101597.66;;;13.96;77.33
60832;BME280;46665;51.558;-0.448;2023-04-29T10:58:44;101601.47;;;14.00;81.52
60832;BME280;46665;51.558;-0.448;2023-04-29T11:01:12;101601.16;;;14.06;77.84
60832;BME280;46665;51.558;-0.448;2023-04-29T11:03:51;101595.09;;;14.15;81.00
60832;BME280;46665;51.558;-0.448;2023-04-29T11:09:07;101600.38;;;14.45;77.40
60832;BME280;46665;51.558;-0.448;2023-04-29T11:12:06;101601.28;;;14.36;73.06
60832;BME280;46665;51.558;-0.448;2023-04-29T11:14:35;101601.78;;;14.43;75.31
60832;BME280;46665;51.558;-0.448;2023-04-29T11:17:03;101603.06;;;14.61;79.59
60832;BME280;46665;51.558;-0.448;2023-04-29T11:19:34;101606.25;;;14.73;76.19
60832;BME280;46665;51.558;-0.448;2023-04-29T11:22:26;101610.59;;;14.79;72.65
60832;BME280;46665;51.558;-0.448;2023-04-29T11:25:02;101603.13;;;14.90;72.12
60832;BME280;46665;51.558;-0.448;2023-04-29T11:27:36;101602.44;;;15.03;73.58
60832;BME280;46665;51.558;-0.448;2023-04-29T11:30:04;101602.84;;;15.21;71.26
60832;BME280;46665;51.558;-0.448;2023-04-29T11:32:35;101600.63;;;15.23;70.32
60832;BME280;46665;51.558;-0.448;2023-04-29T11:35:11;101607.63;;;15.34;71.47
60832;BME280;46665;51.558;-0.448;2023-04-29T11:37:37;101597.25;;;15.31;72.51
60832;BME280;46665;51.558;-0.448;2023-04-29T11:40:04;101595.63;;;15.30;67.66
60832;BME280;46665;51.558;-0.448;2023-04-29T11:42:39;101590.72;;;15.27;68.79
60832;BME280;46665;51.558;-0.448;2023-04-29T11:45:05;101590.56;;;15.42;71.44
60832;BME280;46665;51.558;-0.448;2023-04-29T11:47:31;101595.34;;;15.55;69.87
60832;BME280;46665;51.558;-0.448;2023-04-29T11:50:07;101598.03;;;15.60;69.73
60832;BME280;46665;51.558;-0.448;2023-04-29T11:52:37;101591.16;;;15.63;68.55
60832;BME280;46665;51.558;-0.448;2023-04-29T11:55:03;101597.72;;;15.62;68.12
60832;BME280;46665;51.558;-0.448;2023-04-29T11:57:29;101597.03;;;15.80;71.79
60832;BME280;46665;51.558;-0.448;2023-04-29T11:59:57;101593.41;;;15.85;72.44
60832;BME280;46665;51.558;-0.448;2023-04-29T12:02:28;101583.53;;;15.84;69.46
60832;BME280;46665;51.558;-0.448;2023-04-29T12:04:53;101591.09;;;15.92;69.37
60832;BME280;46665;51.558;-0.448;2023-04-29T12:07:19;101582.56;;;15.94;70.35
60832;BME280;46665;51.558;-0.448;2023-04-29T12:09:44;101582.56;;;15.94;69.63
60832;BME280;46665;51.558;-0.448;2023-04-29T12:12:12;101584.66;;;16.02;69.77
60832;BME280;46665;51.558;-0.448;2023-04-29T12:14:39;101578.34;;;16.01;69.41
60832;BME280;46665;51.558;-0.448;2023-04-29T12:17:08;101576.56;;;15.92;69.06
60832;BME280;46665;51.558;-0.448;2023-04-29T12:19:34;101578.50;;;15.91;67.21
60832;BME280;46665;51.558;-0.448;2023-04-29T12:22:20;101562.50;;;15.98;70.97
60832;BME280;46665;51.558;-0.448;2023-04-29T12:24:45;101576.06;;;16.09;69.63
60832;BME280;46665;51.558;-0.448;2023-04-29T12:27:11;101568.66;;;16.09;63.70
60832;BME280;46665;51.558;-0.448;2023-04-29T12:29:38;101576.22;;;16.17;65.52
60832;BME280;46665;51.558;-0.448;2023-04-29T12:32:05;101573.91;;;16.24;69.09
60832;BME280;46665;51.558;-0.448;2023-04-29T12:34:31;101576.06;;;16.28;65.89
60832;BME280;46665;51.558;-0.448;2023-04-29T12:37:00;101581.00;;;16.31;66.30
60832;BME280;46665;51.558;-0.448;2023-04-29T12:39:26;101584.44;;;16.55;66.91
60832;BME280;46665;51.558;-0.448;2023-04-29T12:41:57;101582.50;;;16.75;62.90
60832;BME280;46665;51.558;-0.448;2023-04-29T12:44:23;101590.00;;;16.69;62.79
60832;BME280;46665;51.558;-0.448;2023-04-29T12:46:49;101581.31;;;16.81;62.41
60832;BME280;46665;51.558;-0.448;2023-04-29T12:49:17;101582.72;;;16.78;59.19
60832;BME280;46665;51.558;-0.448;2023-04-29T12:51:43;101588.38;;;16.68;60.05
60832;BME280;46665;51.558;-0.448;2023-04-29T12:54:09;101579.03;;;16.69;58.00
60832;BME280;46665;51.558;-0.448;2023-04-29T12:56:36;101572.84;;;16.77;61.58
60832;BME280;46665;51.558;-0.448;2023-04-29T12:59:09;101583.41;;;16.89;60.92
60832;BME280;46665;51.558;-0.448;2023-04-29T13:01:35;101575.06;;;16.94;62.94